Crab Orchard, West Virginia
Current Conditions -  °F | °C
As of 2:51 PM on Tuesday 21 Oct 2014 (Local Time) from KBKW Reporting Station
Light Rain Light Rain  
Wind Chill: 45°   Ceiling: 3100
Heat Index: 49°   Visibility: 7mi
Dew Point: 42°   Wind: 10mph
Humidity: 77%   Direction: 320°NW
Pressure: 29.93"   Gusts: NA
Location:  37.74°N, 81.23°W
Report Text: KBKW 211851Z AUTO 32009KT 7SM -RA SCT025 BKN031 OVC045 09/06 A2993 RMK AO2 RAB33 SLP135 P0001 T00940056 TSNO
Loading
Personal Weather Stations






























Interactive Weather Map
Tropical Storm Tracking
New forecast layout! Learn more

10-Day Weather Forecast

Advertisements
Track Severe Weather on mobile